| time (UTC) | temp F | wind direction | speed knots | gust knots | rain 1hr in | rain 24hr in | rain mn in | humidity % | barometer mb |
| 20260507015005 | 63 | 57 | 2.6 | 7.0 | 0.00 | 0.00 | 0.00 | 33 | 1007.0 |
| 20260507014504 | 64 | 52 | 4.3 | 7.8 | 0.00 | 0.00 | 0.00 | 32 | 1006.9 |
| 20260507014005 | 65 | 55 | 4.3 | 7.0 | 0.00 | 0.00 | 0.00 | 32 | 1006.8 |
| 20260507013005 | 64 | 58 | 4.3 | 8.7 | 0.00 | 0.00 | 0.00 | 33 | 1006.7 |
| 20260507012505 | 63 | 61 | 3.5 | 7.0 | 0.00 | 0.00 | 0.00 | 35 | 1006.8 |
| 20260507011505 | 64 | 49 | 4.3 | 7.8 | 0.00 | 0.00 | 0.00 | 34 | 1006.8 |
| 20260507010505 | 64 | 60 | 3.5 | 6.1 | 0.00 | 0.00 | 0.00 | 32 | 1006.8 |
| 20260507010005 | 65 | 58 | 1.7 | 8.7 | 0.00 | 0.00 | 0.00 | 32 | 1006.8 |
| 20260507005006 | 66 | 63 | 1.7 | 5.2 | 0.00 | 0.00 | 0.00 | 31 | 1006.7 |
| 20260507004505 | 66 | 60 | 3.5 | 6.1 | 0.00 | 0.00 | 0.00 | 32 | 1006.7 |
| 20260507004005 | 66 | 40 | 1.7 | 5.2 | 0.00 | 0.00 | 0.00 | 34 | 1006.7 |
| 20260507003504 | 65 | 39 | 2.6 | 8.7 | 0.00 | 0.00 | 0.00 | 33 | 1006.9 |
| 20260507003005 | 65 | 55 | 4.3 | 10.4 | 0.00 | 0.00 | 0.00 | 32 | 1006.9 |
| 20260507002005 | 66 | 336 | 7.0 | 19.1 | 0.00 | 0.00 | 0.00 | 33 | 1007.0 |
| 20260507001505 | 65 | 19 | 4.3 | 8.7 | 0.00 | 0.00 | 0.00 | 34 | 1007.1 |
| 20260507001004 | 64 | 337 | 1.7 | 7.8 | 0.00 | 0.00 | 0.00 | 34 | 1007.0 |
| 20260507000005 | 64 | 131 | 3.5 | 13.9 | 0.00 | 0.00 | 0.00 | 36 | 1007.0 |
| 20260506235505 | 65 | 292 | 11.3 | 17.4 | 0.00 | 0.00 | 0.00 | 32 | 1006.9 |
| 20260506235004 | 66 | 86 | 0.9 | 1.7 | 0.00 | 0.00 | 0.00 | 29 | 1006.6 |
| 20260506234505 | 67 | 50 | 1.7 | 5.2 | 0.00 | 0.00 | 0.00 | 29 | 1006.4 |
| 20260506234005 | 67 | 54 | 2.6 | 7.8 | 0.00 | 0.00 | 0.00 | 30 | 1006.1 |
| 20260506233505 | 67 | 54 | 4.3 | 7.8 | 0.00 | 0.00 | 0.00 | 29 | 1005.9 |
| 20260506233005 | 68 | 71 | 4.3 | 10.4 | 0.00 | 0.00 | 0.00 | 28 | 1005.9 |
| 20260506232505 | 68 | 57 | 4.3 | 7.8 | 0.00 | 0.00 | 0.00 | 28 | 1005.9 |
| 20260506231505 | 68 | 53 | 5.2 | 12.2 | 0.00 | 0.00 | 0.00 | 27 | 1005.9 |
| 20260506230505 | 68 | 75 | 5.2 | 11.3 | 0.00 | 0.00 | 0.00 | 28 | 1006.0 |
| 20260506230005 | 69 | 58 | 4.3 | 10.4 | 0.00 | 0.00 | 0.00 | 28 | 1005.9 |
| 20260506225005 | 69 | 123 | 2.6 | 2.6 | 0.00 | 0.00 | 0.00 | 28 | 1006.1 |
| 20260506224505 | 69 | 122 | 0.9 | 4.3 | 0.00 | 0.00 | 0.00 | 27 | 1006.3 |
| 20260506224006 | 69 | 323 | 1.7 | 6.1 | 0.00 | 0.00 | 0.00 | 27 | 1006.4 |
| 20260506223505 | 69 | 326 | 2.6 | 4.3 | 0.00 | 0.00 | 0.00 | 27 | 1006.3 |
| 20260506222505 | 69 | 37 | 2.6 | 5.2 | 0.00 | 0.00 | 0.00 | 28 | 1006.1 |
| 20260506222005 | 70 | 77 | 3.5 | 7.8 | 0.00 | 0.00 | 0.00 | 27 | 1006.3 |
| 20260506221005 | 70 | 87 | 5.2 | 8.7 | 0.00 | 0.00 | 0.00 | 28 | 1006.3 |
| 20260506220505 | 70 | 128 | 4.3 | 7.8 | 0.00 | 0.00 | 0.00 | 29 | 1006.4 |
| 20260506220005 | 70 | 80 | 3.5 | 6.1 | 0.00 | 0.00 | 0.00 | 30 | 1006.4 |
| 20260506215006 | 68 | 65 | 5.2 | 10.4 | 0.00 | 0.00 | 0.00 | 27 | 1006.6 |
| 20260506214505 | 69 | 76 | 4.3 | 6.1 | 0.00 | 0.00 | 0.00 | 27 | 1006.7 |
| 20260506214005 | 68 | 45 | 1.7 | 6.1 | 0.00 | 0.00 | 0.00 | 28 | 1006.6 |
| 20260506213505 | 68 | 44 | 1.7 | 6.1 | 0.00 | 0.00 | 0.00 | 28 | 1006.6 |
| 20260506213005 | 68 | 57 | 2.6 | 4.3 | 0.00 | 0.00 | 0.00 | 26 | 1006.7 |
| 20260506212505 | 68 | 345 | 5.2 | 8.7 | 0.00 | 0.00 | 0.00 | 25 | 1006.7 |
| 20260506212004 | 68 | 31 | 1.7 | 2.6 | 0.00 | 0.00 | 0.00 | 26 | 1006.6 |
| 20260506211005 | 68 | 52 | 2.6 | 7.0 | 0.00 | 0.00 | 0.00 | 26 | 1006.7 |
| 20260506210505 | 69 | 78 | 4.3 | 7.0 | 0.00 | 0.00 | 0.00 | 26 | 1006.7 |
| 20260506210005 | 69 | 278 | 0.9 | 2.6 | 0.00 | 0.00 | 0.00 | 25 | 1006.7 |
| 20260506205504 | 70 | 72 | 4.3 | 10.4 | 0.00 | 0.00 | 0.00 | 24 | 1006.8 |
| 20260506205005 | 71 | 12 | 1.7 | 4.3 | 0.00 | 0.00 | 0.00 | 26 | 1006.7 |
| 20260506204005 | 70 | 2 | 1.7 | 8.7 | 0.00 | 0.00 | 0.00 | 25 | 1006.7 |
| 20260506203005 | 69 | 64 | 2.6 | 5.2 | 0.00 | 0.00 | 0.00 | 26 | 1006.8 |
| 20260506202005 | 70 | 340 | 4.3 | 13.9 | 0.00 | 0.00 | 0.00 | 24 | 1006.8 |
| 20260506201005 | 70 | 32 | 2.6 | 7.8 | 0.00 | 0.00 | 0.00 | 26 | 1007.0 |
| 20260506200505 | 70 | 65 | 3.5 | 7.8 | 0.00 | 0.00 | 0.00 | 27 | 1006.9 |
| 20260506200005 | 71 | 31 | 3.5 | 13.9 | 0.00 | 0.00 | 0.00 | 25 | 1006.9 |
| 20260506195505 | 71 | 338 | 10.4 | 14.8 | 0.00 | 0.00 | 0.00 | 23 | 1007.0 |
| 20260506195005 | 71 | 337 | 4.3 | 11.3 | 0.00 | 0.00 | 0.00 | 24 | 1007.0 |
| 20260506194504 | 71 | 51 | 5.2 | 10.4 | 0.00 | 0.00 | 0.00 | 25 | 1007.1 |
| 20260506193505 | 70 | 52 | 4.3 | 10.4 | 0.00 | 0.00 | 0.00 | 26 | 1007.2 |
| 20260506193005 | 69 | 65 | 3.5 | 10.4 | 0.00 | 0.00 | 0.00 | 26 | 1007.1 |
| 20260506192504 | 69 | 42 | 4.3 | 7.8 | 0.00 | 0.00 | 0.00 | 27 | 1007.1 |
| 20260506192005 | 69 | 48 | 4.3 | 11.3 | 0.00 | 0.00 | 0.00 | 26 | 1007.2 |
| 20260506191505 | 69 | 20 | 3.5 | 15.6 | 0.00 | 0.00 | 0.00 | 25 | 1007.3 |
| 20260506190504 | 71 | 357 | 2.6 | 8.7 | 0.00 | 0.00 | 0.00 | 25 | 1007.4 |
| 20260506190006 | 70 | 349 | 6.1 | 12.2 | 0.00 | 0.00 | 0.00 | 25 | 1007.4 |
| 20260506185504 | 70 | 331 | 2.6 | 7.8 | 0.00 | 0.00 | 0.00 | 26 | 1007.5 |
| 20260506185005 | 68 | 10 | 0.9 | 7.0 | 0.00 | 0.00 | 0.00 | 28 | 1007.5 |
| 20260506184505 | 68 | 313 | 2.6 | 7.8 | 0.00 | 0.00 | 0.00 | 25 | 1007.5 |
| 20260506184005 | 68 | 52 | 1.7 | 5.2 | 0.00 | 0.00 | 0.00 | 26 | 1007.6 |
| 20260506183505 | 67 | 151 | 1.7 | 7.8 | 0.00 | 0.00 | 0.00 | 26 | 1007.7 |
| 20260506182504 | 67 | 316 | 7.0 | 11.3 | 0.00 | 0.00 | 0.00 | 26 | 1007.6 |
| 20260506182004 | 67 | 230 | 3.5 | 7.0 | 0.00 | 0.00 | 0.00 | 27 | 1007.7 |
| 20260506181505 | 66 | 297 | 6.1 | 10.4 | 0.00 | 0.00 | 0.00 | 26 | 1007.8 |
| 20260506180505 | 66 | 305 | 4.3 | 10.4 | 0.00 | 0.00 | 0.00 | 26 | 1008.0 |
| 20260506180005 | 66 | 307 | 9.6 | 17.4 | 0.00 | 0.00 | 0.00 | 27 | 1008.0 |
| 20260506174005 | 65 | 320 | 4.3 | 10.4 | 0.00 | 0.00 | 0.00 | 28 | 1008.2 |
| 20260506173505 | 64 | 256 | 2.6 | 10.4 | 0.00 | 0.00 | 0.00 | 28 | 1008.2 |
| 20260506173004 | 64 | 324 | 3.5 | 10.4 | 0.00 | 0.00 | 0.00 | 27 | 1008.3 |
| 20260506172505 | 64 | 269 | 6.1 | 10.4 | 0.00 | 0.00 | 0.00 | 27 | 1008.3 |
| 20260506172005 | 64 | 271 | 6.1 | 11.3 | 0.00 | 0.00 | 0.00 | 28 | 1008.5 |
| 20260506171505 | 63 | 256 | 6.1 | 13.0 | 0.00 | 0.00 | 0.00 | 28 | 1008.5 |
| 20260506171005 | 63 | 266 | 4.3 | 10.4 | 0.00 | 0.00 | 0.00 | 27 | 1008.5 |
| 20260506170505 | 63 | 257 | 6.1 | 11.3 | 0.00 | 0.00 | 0.00 | 28 | 1008.6 |
| 20260506170005 | 63 | 257 | 7.0 | 12.2 | 0.00 | 0.00 | 0.00 | 29 | 1008.7 |
| 20260506165504 | 63 | 264 | 7.8 | 11.3 | 0.00 | 0.00 | 0.00 | 29 | 1008.7 |
| 20260506165005 | 62 | 255 | 7.8 | 11.3 | 0.00 | 0.00 | 0.00 | 29 | 1008.7 |
| 20260506164504 | 61 | 264 | 6.1 | 13.0 | 0.00 | 0.00 | 0.00 | 31 | 1008.9 |
| 20260506163505 | 61 | 265 | 7.8 | 10.4 | 0.00 | 0.00 | 0.00 | 30 | 1009.0 |
| 20260506163005 | 61 | 250 | 6.1 | 10.4 | 0.00 | 0.00 | 0.00 | 31 | 1009.1 |
| 20260506162506 | 60 | 270 | 7.0 | 10.4 | 0.00 | 0.00 | 0.00 | 33 | 1009.2 |
| 20260506161505 | 58 | 255 | 4.3 | 8.7 | 0.00 | 0.00 | 0.00 | 35 | 1009.3 |
| 20260506161005 | 58 | 215 | 4.3 | 8.7 | 0.00 | 0.00 | 0.00 | 36 | 1009.4 |
| 20260506160505 | 57 | 205 | 4.3 | 7.0 | 0.00 | 0.00 | 0.00 | 37 | 1009.6 |
| 20260506160004 | 56 | 191 | 4.3 | 7.0 | 0.00 | 0.00 | 0.00 | 38 | 1009.6 |
| 20260506155505 | 55 | 223 | 6.1 | 10.4 | 0.00 | 0.00 | 0.00 | 37 | 1009.7 |
| 20260506154504 | 54 | 216 | 4.3 | 10.4 | 0.00 | 0.00 | 0.00 | 40 | 1009.8 |
| 20260506154005 | 53 | 253 | 7.0 | 10.4 | 0.00 | 0.00 | 0.00 | 40 | 1009.9 |
| 20260506153505 | 53 | 225 | 5.2 | 10.4 | 0.00 | 0.00 | 0.00 | 41 | 1010.0 |
| 20260506153005 | 52 | 226 | 8.7 | 12.2 | 0.00 | 0.00 | 0.00 | 41 | 1009.9 |
| 20260506152504 | 52 | 245 | 6.1 | 10.4 | 0.00 | 0.00 | 0.00 | 42 | 1010.0 |
| 20260506152005 | 51 | 226 | 7.0 | 10.4 | 0.00 | 0.00 | 0.00 | 43 | 1010.1 |
| 20260506151505 | 51 | 245 | 7.8 | 10.4 | 0.00 | 0.00 | 0.00 | 42 | 1010.0 |
| 20260506150505 | 50 | 217 | 7.0 | 10.4 | 0.00 | 0.00 | 0.00 | 43 | 1010.2 |
| 20260506150005 | 50 | 233 | 5.2 | 7.8 | 0.00 | 0.00 | 0.00 | 45 | 1010.3 |
| 20260506145004 | 48 | 212 | 3.5 | 8.7 | 0.00 | 0.00 | 0.00 | 46 | 1010.3 |
| 20260506144504 | 48 | 222 | 4.3 | 7.0 | 0.00 | 0.00 | 0.00 | 46 | 1010.4 |
| 20260506144005 | 47 | 229 | 4.3 | 6.1 | 0.00 | 0.00 | 0.00 | 49 | 1010.4 |
| 20260506143004 | 46 | 240 | 5.2 | 7.0 | 0.00 | 0.00 | 0.00 | 49 | 1010.6 |
| 20260506142504 | 45 | 248 | 5.2 | 7.8 | 0.00 | 0.00 | 0.00 | 50 | 1010.5 |
| 20260506142005 | 44 | 250 | 6.1 | 7.8 | 0.00 | 0.00 | 0.00 | 52 | 1010.6 |
| 20260506141505 | 44 | 257 | 6.1 | 7.8 | 0.00 | 0.00 | 0.00 | 53 | 1010.7 |
| 20260506141005 | 43 | 251 | 6.1 | 7.8 | 0.00 | 0.00 | 0.00 | 54 | 1010.6 |
| 20260506140504 | 42 | 259 | 6.1 | 7.8 | 0.00 | 0.00 | 0.00 | 54 | 1010.7 |
| 20260506140005 | 41 | 255 | 5.2 | 7.0 | 0.00 | 0.00 | 0.00 | 56 | 1010.7 |
| 20260506135005 | 39 | 260 | 5.2 | 7.0 | 0.00 | 0.00 | 0.00 | 58 | 1010.8 |
| 20260506134505 | 38 | 261 | 3.5 | 5.2 | 0.00 | 0.00 | 0.00 | 58 | 1010.9 |
| 20260506134004 | 37 | 271 | 4.3 | 6.1 | 0.00 | 0.00 | 0.00 | 58 | 1010.9 |
| 20260506133505 | 37 | 285 | 3.5 | 5.2 | 0.00 | 0.00 | 0.00 | 59 | 1011.0 |
| 20260506133005 | 36 | 260 | 3.5 | 5.2 | 0.00 | 0.00 | 0.00 | 60 | 1010.8 |
| 20260506132504 | 35 | 251 | 2.6 | 4.3 | 0.00 | 0.00 | 0.00 | 61 | 1010.9 |
| 20260506132005 | 34 | 249 | 2.6 | 2.6 | 0.00 | 0.00 | 0.00 | 60 | 1010.9 |
| 20260506131505 | 34 | 248 | 1.7 | 4.3 | 0.00 | 0.00 | 0.00 | 61 | 1010.9 |
| 20260506131004 | 33 | 245 | 1.7 | 2.6 | 0.00 | 0.00 | 0.00 | 61 | 1010.9 |
| 20260506130505 | 33 | 236 | 0.9 | 1.7 | 0.00 | 0.00 | 0.00 | 60 | 1010.9 |
| 20260506130005 | 33 | 247 | 0.9 | 1.7 | 0.00 | 0.00 | 0.00 | 58 | 1010.9 |
| 20260506125505 | 34 | 223 | 0.9 | 1.7 | 0.00 | 0.00 | 0.00 | 56 | 1010.9 |
| 20260506124505 | 34 | 203 | 1.7 | 2.6 | 0.00 | 0.00 | 0.00 | 56 | 1011.0 |
| 20260506124004 | 33 | 191 | 1.7 | 2.6 | 0.00 | 0.00 | 0.00 | 58 | 1011.0 |
| 20260506123505 | 32 | 193 | 1.7 | 2.6 | 0.00 | 0.00 | 0.00 | 58 | 1011.0 |
| 20260506123005 | 32 | 194 | 2.6 | 4.3 | 0.00 | 0.00 | 0.00 | 57 | 1011.1 |
| 20260506122505 | 32 | 186 | 2.6 | 2.6 | 0.00 | 0.00 | 0.00 | 57 | 1011.0 |
| 20260506122004 | 32 | 194 | 1.7 | 2.6 | 0.00 | 0.00 | 0.00 | 57 | 1011.1 |
| 20260506120505 | 32 | 175 | 0.0 | 1.7 | 0.00 | 0.00 | 0.00 | 56 | 1011.3 |
| 20260506120005 | 32 | 179 | 0.0 | 1.7 | 0.00 | 0.00 | 0.00 | 56 | 1011.2 |
| 20260506115504 | 32 | 180 | 0.0 | 2.6 | 0.00 | 0.00 | 0.00 | 56 | 1011.5 |
| 20260506115004 | 32 | 186 | 0.0 | 1.7 | 0.00 | 0.00 | 0.00 | 56 | 1011.5 |
| 20260506114504 | 32 | 162 | 0.9 | 1.7 | 0.00 | 0.00 | 0.00 | 56 | 1011.5 |
| 20260506114005 | 32 | 166 | 0.9 | 1.7 | 0.00 | 0.00 | 0.00 | 56 | 1011.7 |
| 20260506113505 | 32 | 158 | 0.9 | 2.6 | 0.00 | 0.00 | 0.00 | 56 | 1011.9 |
| 20260506113005 | 32 | 172 | 0.0 | 1.7 | 0.00 | 0.00 | 0.00 | 56 | 1011.8 |
| 20260506112005 | 32 | 150 | 0.9 | 2.6 | 0.00 | 0.00 | 0.00 | 56 | 1011.9 |
| 20260506111504 | 32 | 171 | 0.0 | 2.6 | 0.00 | 0.00 | 0.00 | 56 | 1011.9 |
| 20260506111005 | 32 | 154 | 0.9 | 1.7 | 0.00 | 0.00 | 0.00 | 56 | 1012.0 |
| 20260506110004 | 33 | 145 | 0.9 | 1.7 | 0.00 | 0.00 | 0.00 | 56 | 1012.1 |
| 20260506105504 | 33 | 144 | 0.9 | 1.7 | 0.00 | 0.00 | 0.00 | 55 | 1012.2 |
| 20260506105005 | 33 | 150 | 0.9 | 2.6 | 0.00 | 0.00 | 0.00 | 55 | 1012.2 |
| 20260506104004 | 33 | 137 | 0.9 | 2.6 | 0.00 | 0.00 | 0.00 | 55 | 1012.3 |
| 20260506103504 | 33 | 130 | 1.7 | 2.6 | 0.00 | 0.00 | 0.00 | 55 | 1012.3 |
| 20260506103005 | 33 | 128 | 1.7 | 2.6 | 0.00 | 0.00 | 0.00 | 55 | 1012.4 |
| 20260506102505 | 33 | 137 | 0.9 | 2.6 | 0.00 | 0.00 | 0.00 | 55 | 1012.4 |
| 20260506102004 | 33 | 128 | 2.6 | 4.3 | 0.00 | 0.00 | 0.00 | 55 | 1012.5 |
| 20260506101504 | 33 | 123 | 1.7 | 2.6 | 0.00 | 0.00 | 0.00 | 56 | 1012.6 |
| 20260506101004 | 33 | 125 | 2.6 | 2.6 | 0.00 | 0.00 | 0.00 | 55 | 1012.7 |
| 20260506100505 | 33 | 125 | 2.6 | 4.3 | 0.00 | 0.00 | 0.00 | 55 | 1012.8 |
| 20260506100005 | 33 | 127 | 2.6 | 4.3 | 0.00 | 0.00 | 0.00 | 55 | 1012.9 |
| 20260506095505 | 33 | 134 | 1.7 | 4.3 | 0.00 | 0.00 | 0.00 | 55 | 1012.9 |
| 20260506094504 | 33 | 130 | 2.6 | 5.2 | 0.00 | 0.00 | 0.00 | 54 | 1013.0 |
| 20260506094004 | 33 | 127 | 2.6 | 4.3 | 0.00 | 0.00 | 0.00 | 54 | 1013.2 |
| 20260506093505 | 33 | 133 | 3.5 | 7.0 | 0.00 | 0.00 | 0.00 | 54 | 1013.3 |
| 20260506093004 | 33 | 127 | 2.6 | 4.3 | 0.00 | 0.00 | 0.00 | 55 | 1013.5 |
| 20260506092504 | 33 | 127 | 2.6 | 5.2 | 0.00 | 0.00 | 0.00 | 55 | 1013.4 |
| 20260506092004 | 33 | 126 | 2.6 | 4.3 | 0.00 | 0.00 | 0.00 | 55 | 1013.5 |
| 20260506091505 | 33 | 126 | 2.6 | 5.2 | 0.00 | 0.00 | 0.00 | 55 | 1013.6 |
| 20260506091004 | 33 | 131 | 2.6 | 4.3 | 0.00 | 0.00 | 0.00 | 55 | 1013.7 |
| 20260506085005 | 33 | 124 | 2.6 | 5.2 | 0.00 | 0.00 | 0.00 | 55 | 1013.9 |
| 20260506084505 | 32 | 134 | 2.6 | 4.3 | 0.00 | 0.00 | 0.00 | 55 | 1013.9 |
| 20260506084005 | 32 | 136 | 1.7 | 2.6 | 0.00 | 0.00 | 0.00 | 56 | 1014.0 |
| 20260506083505 | 32 | 136 | 1.7 | 2.6 | 0.00 | 0.00 | 0.00 | 56 | 1014.0 |
| 20260506083004 | 32 | 130 | 1.7 | 2.6 | 0.00 | 0.00 | 0.00 | 57 | 1014.1 |
| 20260506082505 | 32 | 119 | 1.7 | 2.6 | 0.00 | 0.00 | 0.00 | 57 | 1014.1 |
| 20260506082004 | 32 | 122 | 1.7 | 2.6 | 0.00 | 0.00 | 0.00 | 56 | 1014.2 |
| 20260506081005 | 31 | 122 | 1.7 | 2.6 | 0.00 | 0.00 | 0.00 | 58 | 1014.3 |
| 20260506073504 | 33 | 124 | 1.7 | 2.6 | 0.00 | 0.00 | 0.00 | 54 | 1014.8 |
| 20260506073004 | 34 | 125 | 2.6 | 4.3 | 0.00 | 0.00 | 0.00 | 53 | 1014.8 |
| 20260506072505 | 34 | 126 | 2.6 | 4.3 | 0.00 | 0.00 | 0.00 | 53 | 1014.9 |
| 20260506072004 | 34 | 129 | 2.6 | 5.2 | 0.00 | 0.00 | 0.00 | 53 | 1014.9 |
| 20260506071505 | 34 | 131 | 2.6 | 5.2 | 0.00 | 0.00 | 0.00 | 53 | 1015.0 |
| 20260506071005 | 34 | 125 | 2.6 | 5.2 | 0.00 | 0.00 | 0.00 | 53 | 1015.1 |
| 20260506070504 | 33 | 134 | 3.5 | 5.2 | 0.00 | 0.00 | 0.00 | 53 | 1015.2 |
| 20260506062505 | 34 | 124 | 2.6 | 4.3 | 0.00 | 0.00 | 0.00 | 53 | 1015.7 |
| 20260506062004 | 34 | 127 | 1.7 | 4.3 | 0.00 | 0.00 | 0.00 | 53 | 1015.7 |
| 20260506061505 | 34 | 130 | 2.6 | 4.3 | 0.00 | 0.00 | 0.00 | 53 | 1015.8 |
| 20260506060505 | 33 | 120 | 0.9 | 2.6 | 0.00 | 0.00 | 0.00 | 56 | 1015.8 |
| 20260506051004 | 33 | 130 | 0.0 | 0.9 | 0.00 | 0.00 | 0.00 | 54 | 1016.4 |
| 20260506050504 | 33 | 110 | 0.0 | 2.6 | 0.00 | 0.00 | 0.00 | 54 | 1016.4 |
| 20260506045004 | 34 | 143 | 0.9 | 2.6 | 0.00 | 0.00 | 0.00 | 54 | 1016.5 |
| 20260506044504 | 33 | 110 | 0.9 | 2.6 | 0.00 | 0.00 | 0.00 | 54 | 1016.7 |
| 20260506044004 | 34 | 100 | 0.0 | 0.9 | 0.00 | 0.00 | 0.00 | 55 | 1016.5 |
| 20260506043005 | 34 | 62 | 0.9 | 1.7 | 0.00 | 0.00 | 0.00 | 54 | 1016.6 |
| 20260506042004 | 35 | 130 | 0.0 | 0.9 | 0.00 | 0.00 | 0.00 | 53 | 1016.7 |
| 20260506041505 | 35 | 68 | 0.9 | 2.6 | 0.00 | 0.00 | 0.00 | 52 | 1016.7 |
| 20260506041004 | 35 | 136 | 0.9 | 1.7 | 0.00 | 0.00 | 0.00 | 52 | 1016.7 |
| 20260506040504 | 35 | 110 | 0.0 | 1.7 | 0.00 | 0.00 | 0.00 | 52 | 1016.7 |
| 20260506040005 | 35 | 89 | 0.9 | 1.7 | 0.00 | 0.00 | 0.00 | 52 | 1016.8 |
| 20260506035505 | 35 | 112 | 0.9 | 1.7 | 0.00 | 0.00 | 0.00 | 51 | 1016.9 |
| 20260506035004 | 35 | 90 | 0.9 | 1.7 | 0.00 | 0.00 | 0.00 | 51 | 1016.9 |
| 20260506034504 | 36 | 96 | 0.9 | 2.6 | 0.00 | 0.00 | 0.00 | 50 | 1016.9 |
| 20260506034005 | 36 | 102 | 0.9 | 1.7 | 0.00 | 0.00 | 0.00 | 49 | 1016.8 |
| 20260506033504 | 36 | 109 | 0.9 | 1.7 | 0.00 | 0.00 | 0.00 | 49 | 1016.8 |
| 20260506033005 | 37 | 79 | 0.9 | 1.7 | 0.00 | 0.00 | 0.00 | 48 | 1016.8 |
| 20260506032004 | 38 | 132 | 0.9 | 1.7 | 0.00 | 0.00 | 0.00 | 47 | 1016.8 |
| 20260506031504 | 38 | 132 | 0.0 | 0.9 | 0.00 | 0.00 | 0.00 | 47 | 1016.7 |
| 20260506030504 | 39 | 132 | 0.0 | 0.9 | 0.00 | 0.00 | 0.00 | 44 | 1016.7 |
| 20260506030004 | 40 | 146 | 0.0 | 0.9 | 0.00 | 0.00 | 0.00 | 44 | 1016.7 |
| 20260506025504 | 41 | 95 | 0.0 | 0.9 | 0.00 | 0.00 | 0.00 | 43 | 1016.7 |
| 20260506025005 | 42 | 95 | 0.0 | 0.9 | 0.00 | 0.00 | 0.00 | 41 | 1016.7 |
| 20260506024505 | 43 | 95 | 0.0 | 1.7 | 0.00 | 0.00 | 0.00 | 40 | 1016.7 |
| 20260506024004 | 44 | 83 | 0.0 | 0.9 | 0.00 | 0.00 | 0.00 | 38 | 1016.7 |
| 20260506023504 | 45 | 83 | 0.9 | 2.6 | 0.00 | 0.00 | 0.00 | 37 | 1016.6 |
| 20260506023004 | 46 | 99 | 0.9 | 2.6 | 0.00 | 0.00 | 0.00 | 36 | 1016.7 |
| 20260506022004 | 46 | 140 | 1.7 | 5.2 | 0.00 | 0.00 | 0.00 | 35 | 1016.6 |
| 20260506021504 | 47 | 63 | 1.7 | 2.6 | 0.00 | 0.00 | 0.00 | 33 | 1016.5 |
| 20260506021005 | 48 | 125 | 0.9 | 2.6 | 0.00 | 0.00 | 0.00 | 33 | 1016.6 |
| 20260506020504 | 48 | 125 | 0.0 | 1.7 | 0.00 | 0.00 | 0.00 | 34 | 1016.7 |
| 20260506020004 | 48 | 118 | 1.7 | 2.6 | 0.00 | 0.00 | 0.00 | 32 | 1016.7 |
| 20260506015504 | 49 | 107 | 0.9 | 2.6 | 0.00 | 0.00 | 0.00 | 33 | 1016.7 |